createdAt,value
2023-06-23T00:00:46.321Z,19.55
2023-06-23T00:03:14.280Z,19.40
2023-06-23T00:05:41.762Z,19.31
2023-06-23T00:08:08.905Z,18.84
2023-06-23T00:10:36.035Z,19.41
2023-06-23T00:13:04.026Z,19.03
2023-06-23T00:15:31.606Z,18.91
2023-06-23T00:18:01.783Z,19.43
2023-06-23T00:20:29.095Z,19.33
2023-06-23T00:22:56.670Z,19.31
2023-06-23T00:25:24.499Z,19.37
2023-06-23T00:27:51.699Z,19.22
2023-06-23T00:30:21.514Z,19.30
2023-06-23T00:32:49.246Z,19.02
2023-06-23T00:35:16.477Z,19.26
2023-06-23T00:37:44.729Z,18.97
2023-06-23T00:40:12.268Z,19.32
2023-06-23T00:42:54.158Z,19.17
2023-06-23T00:45:22.361Z,19.00
2023-06-23T00:47:50.309Z,19.12
2023-06-23T00:50:21.600Z,19.29
2023-06-23T00:52:53.088Z,19.27
2023-06-23T00:55:27.976Z,19.19
2023-06-23T00:57:57.441Z,18.79
2023-06-23T01:00:29.233Z,18.97
2023-06-23T01:03:03.225Z,18.76
2023-06-23T01:05:37.543Z,18.87
2023-06-23T01:08:29.188Z,19.00
2023-06-23T01:11:10.090Z,18.91
2023-06-23T01:13:50.221Z,18.76
2023-06-23T01:16:19.188Z,19.03
2023-06-23T01:19:00.322Z,19.01
2023-06-23T01:21:40.251Z,19.01
2023-06-23T01:24:30.534Z,18.98
2023-06-23T01:27:28.017Z,18.98
2023-06-23T01:29:56.826Z,18.97
2023-06-23T01:32:33.260Z,18.86
2023-06-23T01:35:13.445Z,18.65
2023-06-23T01:37:43.690Z,18.47
2023-06-23T01:40:15.145Z,18.95
2023-06-23T01:42:47.870Z,18.93
2023-06-23T01:45:16.063Z,18.92
2023-06-23T01:47:50.391Z,18.69
2023-06-23T01:50:22.536Z,18.90
2023-06-23T01:52:51.239Z,18.79
2023-06-23T01:55:19.467Z,18.89
2023-06-23T01:57:48.020Z,18.63
2023-06-23T02:00:19.355Z,18.86
2023-06-23T02:02:49.412Z,18.82
2023-06-23T02:05:19.191Z,18.69
2023-06-23T02:07:49.184Z,18.45
2023-06-23T02:10:18.010Z,18.56
2023-06-23T02:12:45.973Z,18.35
2023-06-23T02:15:16.166Z,18.77
2023-06-23T02:17:45.337Z,17.82
2023-06-23T02:20:18.062Z,18.59
2023-06-23T02:22:50.751Z,18.35
2023-06-23T02:25:21.894Z,18.64
2023-06-23T02:27:49.817Z,18.80
2023-06-23T02:30:19.162Z,18.49
2023-06-23T02:32:49.812Z,18.79
2023-06-23T02:35:17.432Z,18.71
2023-06-23T02:37:54.440Z,18.36
2023-06-23T02:40:27.028Z,18.18
2023-06-23T02:43:17.732Z,18.74
2023-06-23T02:45:49.738Z,18.54
2023-06-23T02:48:32.162Z,18.70
2023-06-23T02:51:01.121Z,17.27
2023-06-23T02:53:36.581Z,18.35
2023-06-23T02:56:08.853Z,18.65
2023-06-23T02:58:36.762Z,17.12
2023-06-23T03:01:04.392Z,18.55
2023-06-23T03:03:35.032Z,18.32
2023-06-23T03:06:02.487Z,18.61
2023-06-23T03:08:30.060Z,18.68
2023-06-23T03:10:57.324Z,18.27
2023-06-23T03:13:24.533Z,18.64
2023-06-23T03:15:56.170Z,18.56
2023-06-23T03:18:26.444Z,18.69
2023-06-23T03:20:54.271Z,18.59
2023-06-23T03:23:22.845Z,18.69
2023-06-23T03:25:49.974Z,18.63
2023-06-23T03:28:26.690Z,18.37
2023-06-23T03:31:09.119Z,18.49
2023-06-23T03:33:41.868Z,18.64
2023-06-23T03:36:20.929Z,18.48
2023-06-23T03:39:05.255Z,18.63
2023-06-23T03:41:33.129Z,18.55
2023-06-23T03:44:19.088Z,18.31
2023-06-23T04:18:40.718Z,18.24
2023-06-23T04:21:08.803Z,18.45
2023-06-23T04:23:36.909Z,18.45
2023-06-23T04:26:07.104Z,18.47
2023-06-23T04:28:35.537Z,18.31
2023-06-23T04:31:08.852Z,18.35
2023-06-23T04:33:36.981Z,18.50
2023-06-23T04:36:16.019Z,18.35
2023-06-23T04:38:54.168Z,18.52
2023-06-23T04:41:23.774Z,18.35
2023-06-23T04:43:54.473Z,18.34
2023-06-23T04:49:19.470Z,18.52
2023-06-23T04:51:50.038Z,18.37
2023-06-23T04:54:30.510Z,18.50
2023-06-23T04:57:03.152Z,18.45
2023-06-23T04:59:36.027Z,18.46
2023-06-23T05:02:04.521Z,18.43
2023-06-23T05:04:33.867Z,18.30
2023-06-23T05:07:03.246Z,18.31
2023-06-23T05:09:31.395Z,18.55
2023-06-23T05:11:59.166Z,18.52
2023-06-23T05:14:27.408Z,18.45
2023-06-23T05:16:57.853Z,18.45
2023-06-23T05:19:26.768Z,18.60
2023-06-23T05:21:55.811Z,18.58
2023-06-23T05:24:23.653Z,18.81
2023-06-23T05:26:51.097Z,18.80
2023-06-23T05:29:19.163Z,18.81
2023-06-23T05:31:46.591Z,18.92
2023-06-23T05:34:16.240Z,18.54
2023-06-23T05:36:43.555Z,18.82
2023-06-23T05:39:12.563Z,19.06
2023-06-23T05:41:39.840Z,18.96
2023-06-23T05:44:06.986Z,18.89
2023-06-23T05:46:34.629Z,19.19
2023-06-23T05:49:15.264Z,19.23
2023-06-23T05:51:43.263Z,19.29
2023-06-23T05:54:12.760Z,19.29
2023-06-23T05:56:52.286Z,19.25
2023-06-23T05:59:40.916Z,19.23
2023-06-23T06:02:12.111Z,19.51
2023-06-23T06:04:43.778Z,19.53
2023-06-23T06:07:11.683Z,19.42
2023-06-23T06:09:39.322Z,19.57
2023-06-23T06:12:07.113Z,19.59
2023-06-23T06:14:34.466Z,19.86
2023-06-23T06:17:02.132Z,20.21
2023-06-23T06:19:30.059Z,20.10
2023-06-23T06:21:58.306Z,20.41
2023-06-23T06:24:26.265Z,20.52
2023-06-23T06:26:57.891Z,20.74
2023-06-23T06:29:25.507Z,20.99
2023-06-23T06:31:53.097Z,21.20
2023-06-23T06:34:21.545Z,21.20
2023-06-23T06:36:49.274Z,21.46
2023-06-23T06:39:17.337Z,21.54
2023-06-23T06:41:46.413Z,21.64
2023-06-23T06:44:14.219Z,21.82
2023-06-23T06:46:43.602Z,21.93
2023-06-23T06:49:12.358Z,22.05
2023-06-23T06:51:41.987Z,22.11
2023-06-23T06:54:09.199Z,22.22
2023-06-23T06:56:36.988Z,22.35
2023-06-23T06:59:04.701Z,22.45
2023-06-23T07:01:32.187Z,22.24
2023-06-23T07:03:59.678Z,22.59
2023-06-23T07:06:27.895Z,22.49
2023-06-23T07:08:55.044Z,22.53
2023-06-23T07:11:22.546Z,22.79
2023-06-23T07:13:49.713Z,22.62
2023-06-23T07:16:16.857Z,22.58
2023-06-23T07:18:43.976Z,22.80
2023-06-23T07:21:11.951Z,22.96
2023-06-23T07:23:39.529Z,23.03
2023-06-23T07:26:06.833Z,22.89
2023-06-23T07:28:33.972Z,22.96
2023-06-23T07:31:01.285Z,22.89
2023-06-23T07:33:28.621Z,23.00
2023-06-23T07:35:55.791Z,22.98
2023-06-23T07:38:22.973Z,22.74
2023-06-23T07:40:50.184Z,22.76
2023-06-23T07:43:17.382Z,22.92
2023-06-23T07:45:44.555Z,22.87
2023-06-23T07:48:11.884Z,22.88
2023-06-23T07:50:39.270Z,23.08
2023-06-23T07:53:06.395Z,22.99
2023-06-23T07:55:33.551Z,23.06
2023-06-23T07:58:00.731Z,23.07
2023-06-23T08:00:29.690Z,23.09
2023-06-23T08:02:57.166Z,22.99
2023-06-23T08:05:25.130Z,23.15
2023-06-23T08:07:52.536Z,23.24
2023-06-23T08:10:19.756Z,23.25
2023-06-23T08:12:46.974Z,23.11
2023-06-23T08:15:14.281Z,23.08
2023-06-23T08:17:42.247Z,23.04
2023-06-23T08:20:10.462Z,23.33
2023-06-23T08:22:41.031Z,23.40
2023-06-23T08:25:09.441Z,23.21
2023-06-23T08:27:36.673Z,23.30
2023-06-23T08:30:04.804Z,23.19
2023-06-23T08:32:32.043Z,23.33
2023-06-23T08:34:59.656Z,23.25
2023-06-23T08:37:26.837Z,23.20
2023-06-23T08:39:54.039Z,23.37
2023-06-23T08:42:22.245Z,23.30
2023-06-23T08:44:49.739Z,23.23
2023-06-23T08:47:20.841Z,23.42
2023-06-23T08:49:50.637Z,23.36
2023-06-23T08:52:18.877Z,23.25
2023-06-23T08:54:46.067Z,23.22
2023-06-23T08:57:14.288Z,23.33
2023-06-23T08:59:42.154Z,23.09
2023-06-23T09:02:09.644Z,23.43
2023-06-23T09:04:37.106Z,23.41
2023-06-23T09:07:04.424Z,23.24
2023-06-23T09:09:35.007Z,23.24
2023-06-23T09:12:02.621Z,23.41
2023-06-23T09:14:31.945Z,23.36
2023-06-23T09:16:59.970Z,23.24
2023-06-23T09:19:34.197Z,23.25
2023-06-23T09:22:02.437Z,23.38
2023-06-23T09:24:45.209Z,23.20
2023-06-23T09:27:12.785Z,23.25
2023-06-23T09:29:39.975Z,23.29
2023-06-23T09:32:10.494Z,23.41
2023-06-23T09:34:40.174Z,23.05
2023-06-23T09:37:15.860Z,23.22
2023-06-23T09:39:49.689Z,23.26
2023-06-23T09:42:17.373Z,23.40
2023-06-23T09:44:46.955Z,23.41
2023-06-23T09:47:19.992Z,23.45
2023-06-23T09:49:49.961Z,23.34
2023-06-23T09:52:26.591Z,23.28
2023-06-23T09:54:53.721Z,23.52
2023-06-23T09:57:21.922Z,23.27
2023-06-23T09:59:53.900Z,23.48
2023-06-23T10:02:27.213Z,23.20
2023-06-23T10:05:06.733Z,23.54
2023-06-23T10:07:34.984Z,23.56
2023-06-23T10:12:41.701Z,23.65
2023-06-23T10:15:10.333Z,23.57
2023-06-23T10:17:37.858Z,23.75
2023-06-23T10:20:06.779Z,23.67
2023-06-23T10:22:35.834Z,23.42
2023-06-23T10:25:03.117Z,23.62
2023-06-23T10:27:31.229Z,23.62
2023-06-23T10:30:01.765Z,23.54
2023-06-23T10:32:36.273Z,23.35
2023-06-23T10:35:11.014Z,23.63
2023-06-23T10:37:46.197Z,23.75
2023-06-23T10:40:20.160Z,23.45
2023-06-23T10:42:50.974Z,23.73
2023-06-23T10:45:18.733Z,23.77
2023-06-23T10:47:46.608Z,23.80
2023-06-23T10:50:14.631Z,23.66
2023-06-23T10:52:43.706Z,23.75
2023-06-23T10:55:51.296Z,23.82
2023-06-23T10:58:20.078Z,23.95
2023-06-23T11:01:01.539Z,23.70
2023-06-23T11:03:39.829Z,23.42
2023-06-23T11:06:13.098Z,23.97
2023-06-23T11:08:43.296Z,24.13
2023-06-23T11:11:12.745Z,24.00
2023-06-23T11:13:50.073Z,24.16
2023-06-23T11:16:18.807Z,24.04
2023-06-23T11:19:01.761Z,24.28
2023-06-23T11:21:35.699Z,23.84
2023-06-23T11:24:22.312Z,24.36
2023-06-23T11:26:54.146Z,24.31
2023-06-23T11:29:25.728Z,24.37
2023-06-23T11:32:17.309Z,24.49
2023-06-23T11:34:59.031Z,24.23
2023-06-23T11:37:32.886Z,24.35
2023-06-23T11:40:01.191Z,24.46
2023-06-23T11:42:28.884Z,24.38
2023-06-23T11:44:57.258Z,24.40
2023-06-23T11:47:26.738Z,24.42
2023-06-23T11:49:55.505Z,24.59
2023-06-23T11:52:23.216Z,24.62
2023-06-23T11:54:52.591Z,24.48
2023-06-23T11:57:23.362Z,24.75
2023-06-23T11:59:54.131Z,24.77
2023-06-23T12:02:22.138Z,24.70
2023-06-23T12:04:50.997Z,24.68
2023-06-23T12:07:18.348Z,24.91
2023-06-23T12:09:45.596Z,24.96
2023-06-23T12:12:16.327Z,24.86
2023-06-23T12:14:45.347Z,24.87
2023-06-23T12:17:14.056Z,24.87
2023-06-23T12:19:44.200Z,24.99
2023-06-23T12:22:19.915Z,24.79
2023-06-23T12:24:47.703Z,25.09
2023-06-23T12:27:15.325Z,24.89
2023-06-23T12:29:42.620Z,25.10
2023-06-23T12:32:10.803Z,24.97
2023-06-23T12:34:43.945Z,25.05
2023-06-23T12:37:17.411Z,25.06
2023-06-23T12:39:55.980Z,25.14
2023-06-23T12:42:24.163Z,25.00
2023-06-23T12:44:52.321Z,25.21
2023-06-23T12:47:20.661Z,25.22
2023-06-23T12:49:49.322Z,25.08
2023-06-23T12:52:16.778Z,25.45
2023-06-23T12:54:44.771Z,25.45
2023-06-23T12:57:12.231Z,25.52
2023-06-23T12:59:39.560Z,25.33
2023-06-23T13:02:07.737Z,25.34
2023-06-23T13:04:34.949Z,25.64
2023-06-23T13:07:02.189Z,25.79
2023-06-23T13:09:29.319Z,25.57
2023-06-23T13:11:56.543Z,25.77
2023-06-23T13:14:24.620Z,25.64
2023-06-23T13:16:52.180Z,25.55
2023-06-23T13:19:19.356Z,25.62
2023-06-23T13:21:48.521Z,25.50
2023-06-23T13:24:15.754Z,25.68
2023-06-23T13:26:48.632Z,25.84
2023-06-23T13:29:17.351Z,25.67
2023-06-23T13:31:46.785Z,25.82
2023-06-23T13:34:14.152Z,25.79
2023-06-23T13:36:41.323Z,25.76
2023-06-23T13:39:09.096Z,25.78
2023-06-23T13:41:36.234Z,25.54
2023-06-23T13:44:03.420Z,25.62
2023-06-23T13:46:30.590Z,25.70
2023-06-23T13:48:58.027Z,25.81
2023-06-23T13:51:25.289Z,25.86
2023-06-23T13:53:52.581Z,25.83
2023-06-23T13:56:19.706Z,25.86
2023-06-23T13:58:46.918Z,25.92
2023-06-23T14:01:14.109Z,25.85
2023-06-23T14:03:41.431Z,26.00
2023-06-23T14:06:11.526Z,25.89
2023-06-23T14:08:42.511Z,26.01
2023-06-23T14:11:09.691Z,25.98
2023-06-23T14:13:36.824Z,25.72
2023-06-23T14:16:04.977Z,25.90
2023-06-23T14:18:32.310Z,25.97
2023-06-23T14:20:59.716Z,25.92
2023-06-23T14:23:26.924Z,25.68
2023-06-23T14:25:55.210Z,25.63
2023-06-23T14:28:22.574Z,25.77
2023-06-23T14:30:49.887Z,25.78
2023-06-23T14:33:18.208Z,25.64
2023-06-23T14:35:45.830Z,25.64
2023-06-23T14:38:13.019Z,25.45
2023-06-23T14:40:41.552Z,25.67
2023-06-23T14:43:09.050Z,25.49
2023-06-23T14:45:40.754Z,25.69
2023-06-23T14:48:09.133Z,25.72
2023-06-23T14:50:37.122Z,25.71
2023-06-23T14:53:04.311Z,25.80
2023-06-23T14:55:34.596Z,25.57
2023-06-23T14:58:04.320Z,25.63
2023-06-23T15:00:32.033Z,25.68
2023-06-23T15:02:59.286Z,25.79
2023-06-23T15:05:26.709Z,25.61
2023-06-23T15:07:56.749Z,25.61
2023-06-23T15:10:23.862Z,25.67
2023-06-23T15:12:51.089Z,25.67
2023-06-23T15:15:18.316Z,25.35
2023-06-23T15:17:45.492Z,25.73
2023-06-23T15:20:13.030Z,25.64
2023-06-23T15:22:40.241Z,25.73
2023-06-23T15:25:10.438Z,25.55
2023-06-23T15:27:40.638Z,25.70
2023-06-23T15:30:13.712Z,25.65
2023-06-23T15:32:41.006Z,25.64
2023-06-23T15:35:08.924Z,25.53
2023-06-23T15:37:42.658Z,25.59
2023-06-23T15:40:12.267Z,25.55
2023-06-23T15:42:40.078Z,25.51
2023-06-23T15:45:10.901Z,25.54
2023-06-23T15:47:38.076Z,25.70
2023-06-23T15:50:05.795Z,25.45
2023-06-23T15:52:32.941Z,25.60
2023-06-23T15:55:00.136Z,25.52
2023-06-23T15:57:30.018Z,25.46
2023-06-23T15:59:57.995Z,25.61
2023-06-23T16:02:27.197Z,25.50
2023-06-23T16:04:54.460Z,25.48
2023-06-23T16:07:22.159Z,25.37
2023-06-23T16:09:49.448Z,25.27
2023-06-23T16:12:16.589Z,25.31
2023-06-23T16:14:43.872Z,25.35
2023-06-23T16:17:11.052Z,25.18
2023-06-23T16:19:38.278Z,25.31
2023-06-23T16:22:06.616Z,25.26
2023-06-23T16:24:34.047Z,25.06
2023-06-23T16:27:01.291Z,25.26
2023-06-23T16:29:28.559Z,25.26
2023-06-23T16:31:58.640Z,25.35
2023-06-23T16:34:26.060Z,25.30
2023-06-23T16:36:53.213Z,25.29
2023-06-23T16:39:22.237Z,25.24
2023-06-23T16:41:53.462Z,25.45
2023-06-23T16:44:20.718Z,25.13
2023-06-23T16:46:48.038Z,25.37
2023-06-23T16:49:15.229Z,25.23
2023-06-23T16:51:42.454Z,25.19
2023-06-23T16:54:09.846Z,25.14
2023-06-23T16:56:37.108Z,25.04
2023-06-23T16:59:10.843Z,24.98
2023-06-23T17:01:38.026Z,25.02
2023-06-23T17:04:05.383Z,25.18
2023-06-23T17:06:32.625Z,25.11
2023-06-23T17:09:00.768Z,25.06
2023-06-23T17:11:28.178Z,25.28
2023-06-23T17:13:55.321Z,25.14
2023-06-23T17:16:22.652Z,24.83
2023-06-23T17:18:49.791Z,25.07
2023-06-23T17:21:17.026Z,24.96
2023-06-23T17:23:44.276Z,24.98
2023-06-23T17:26:12.057Z,25.02
2023-06-23T17:28:42.360Z,24.83
2023-06-23T17:31:09.748Z,24.95
2023-06-23T17:33:36.915Z,25.08
2023-06-23T17:36:04.531Z,25.08
2023-06-23T17:38:31.624Z,25.01
2023-06-23T17:40:58.751Z,25.03
2023-06-23T17:43:25.877Z,24.78
2023-06-23T17:45:53.027Z,24.76
2023-06-23T17:48:21.985Z,24.57
2023-06-23T17:50:49.193Z,24.98
2023-06-23T17:53:16.388Z,24.60
2023-06-23T17:55:44.017Z,24.87
2023-06-23T17:58:11.391Z,24.76
2023-06-23T18:00:41.112Z,24.59
2023-06-23T18:03:08.374Z,24.64
2023-06-23T18:05:36.040Z,24.76
2023-06-23T18:08:03.693Z,24.58
2023-06-23T18:10:31.220Z,24.46
2023-06-23T18:12:58.554Z,24.64
2023-06-23T18:15:25.687Z,24.70
2023-06-23T18:17:52.966Z,24.56
2023-06-23T18:20:22.039Z,24.46
2023-06-23T18:22:49.508Z,24.62
2023-06-23T18:25:17.480Z,24.15
2023-06-23T18:27:44.616Z,24.47
2023-06-23T18:30:12.787Z,24.45
2023-06-23T18:32:40.390Z,24.56
2023-06-23T18:35:08.993Z,24.49
2023-06-23T18:37:36.294Z,24.68
2023-06-23T18:40:03.801Z,24.63
2023-06-23T18:42:32.412Z,24.64
2023-06-23T18:44:59.975Z,24.63
2023-06-23T18:47:28.110Z,24.57
2023-06-23T18:49:55.710Z,24.57
2023-06-23T18:52:23.115Z,24.32
2023-06-23T18:54:50.575Z,24.29
2023-06-23T18:57:17.755Z,24.28
2023-06-23T18:59:45.193Z,24.00
2023-06-23T19:02:12.323Z,24.20
2023-06-23T19:04:39.600Z,24.33
2023-06-23T19:07:07.572Z,24.35
2023-06-23T19:09:34.788Z,24.47
2023-06-23T19:12:02.001Z,24.17
2023-06-23T19:14:29.139Z,24.33
2023-06-23T19:16:56.749Z,24.15
2023-06-23T19:19:26.032Z,24.34
2023-06-23T19:21:53.423Z,24.12
2023-06-23T19:24:20.694Z,24.12
2023-06-23T19:26:47.887Z,23.97
2023-06-23T19:29:15.202Z,24.19
2023-06-23T19:31:42.405Z,24.09
2023-06-23T19:34:09.598Z,23.93
2023-06-23T19:36:36.776Z,23.90
2023-06-23T19:39:05.149Z,24.01
2023-06-23T19:41:32.389Z,23.45
2023-06-23T19:43:59.540Z,23.81
2023-06-23T19:46:26.779Z,23.82
2023-06-23T19:48:56.350Z,23.90
2023-06-23T19:51:23.558Z,23.81
2023-06-23T19:53:50.867Z,23.83
2023-06-23T19:56:18.283Z,23.85
2023-06-23T19:58:45.525Z,23.70
2023-06-23T20:01:12.709Z,23.93
2023-06-23T20:03:39.847Z,23.64
2023-06-23T20:06:07.028Z,23.68
2023-06-23T20:08:34.183Z,23.83
2023-06-23T20:11:01.331Z,23.74
2023-06-23T20:13:28.713Z,23.73
2023-06-23T20:15:55.932Z,23.65
2023-06-23T20:18:23.079Z,23.69
2023-06-23T20:20:50.439Z,23.33
2023-06-23T20:23:17.641Z,23.67
2023-06-23T20:25:44.900Z,23.53
2023-06-23T20:28:13.341Z,23.35
2023-06-23T20:30:40.505Z,23.41
2023-06-23T20:33:07.769Z,23.40
2023-06-23T20:35:34.964Z,23.46
2023-06-23T20:38:10.458Z,23.18
2023-06-23T20:40:37.873Z,23.22
2023-06-23T20:43:05.060Z,23.05
2023-06-23T20:45:32.319Z,23.09
2023-06-23T20:47:59.691Z,23.09
2023-06-23T20:50:26.955Z,23.22
2023-06-23T20:52:54.086Z,23.22
2023-06-23T20:55:21.226Z,23.14
2023-06-23T20:57:48.409Z,22.84
2023-06-23T21:00:16.118Z,23.12
2023-06-23T21:02:43.397Z,23.09
2023-06-23T21:05:11.047Z,22.85
2023-06-23T21:07:38.187Z,22.91
2023-06-23T21:10:12.753Z,22.63
2023-06-23T21:12:43.165Z,22.65
2023-06-23T21:15:10.311Z,22.71
2023-06-23T21:17:39.189Z,22.74
2023-06-23T21:20:08.040Z,22.58
2023-06-23T21:22:35.199Z,22.35
2023-06-23T21:25:02.744Z,22.35
2023-06-23T21:27:30.158Z,22.66
2023-06-23T21:29:58.039Z,22.59
2023-06-23T21:32:25.295Z,22.23
2023-06-23T21:34:52.597Z,22.39
2023-06-23T21:37:22.556Z,22.33
2023-06-23T21:39:49.726Z,21.90
2023-06-23T21:42:16.851Z,22.48
2023-06-23T21:44:47.174Z,22.46
2023-06-23T21:47:14.367Z,22.31
2023-06-23T21:49:44.619Z,22.40
2023-06-23T21:52:14.287Z,22.14
2023-06-23T21:54:41.548Z,22.11
2023-06-23T21:57:11.374Z,22.03
2023-06-23T21:59:39.157Z,21.58
2023-06-23T22:02:06.704Z,21.91
2023-06-23T22:04:33.954Z,21.92
2023-06-23T22:07:01.250Z,21.98
2023-06-23T22:09:28.500Z,21.97
2023-06-23T22:11:56.953Z,21.85
2023-06-23T22:14:26.647Z,21.76
2023-06-23T22:16:57.637Z,21.50
2023-06-23T22:19:24.965Z,21.79
2023-06-23T22:21:54.415Z,21.55
2023-06-23T22:24:24.266Z,21.81
2023-06-23T22:26:53.966Z,21.74
2023-06-23T22:29:21.105Z,21.76
2023-06-23T22:31:48.347Z,21.32
2023-06-23T22:34:15.494Z,21.40
2023-06-23T22:36:45.651Z,21.65
2023-06-23T22:39:12.964Z,21.73
2023-06-23T22:41:40.277Z,21.45
2023-06-23T22:44:07.791Z,21.62
2023-06-23T22:46:35.008Z,21.71
2023-06-23T22:49:08.293Z,21.69
2023-06-23T22:51:42.789Z,21.49
2023-06-23T22:54:14.045Z,21.55
2023-06-23T22:56:42.450Z,21.36
2023-06-23T22:59:09.884Z,21.28
2023-06-23T23:01:39.670Z,21.10
2023-06-23T23:04:07.277Z,21.36
2023-06-23T23:06:35.036Z,20.83
2023-06-23T23:09:02.319Z,21.01
2023-06-23T23:11:29.958Z,21.10
2023-06-23T23:13:57.112Z,21.32
2023-06-23T23:16:26.965Z,21.36
2023-06-23T23:18:54.850Z,21.30
2023-06-23T23:21:22.954Z,21.28
2023-06-23T23:23:53.863Z,21.10
2023-06-23T23:26:25.638Z,21.12
2023-06-23T23:28:52.786Z,21.11
2023-06-23T23:31:20.062Z,21.20
2023-06-23T23:33:47.576Z,21.12
2023-06-23T23:36:14.758Z,20.87
2023-06-23T23:38:41.898Z,20.75
2023-06-23T23:41:09.108Z,21.03
2023-06-23T23:43:36.235Z,20.98
2023-06-23T23:46:03.400Z,20.71
2023-06-23T23:48:30.583Z,20.83
2023-06-23T23:50:57.911Z,20.93
2023-06-23T23:53:25.102Z,20.86
2023-06-23T23:55:52.484Z,20.84
2023-06-23T23:58:19.866Z,20.73
